John Murtha Johnstown Cambria County Airport
KJST : now visible

Airfield :











YOU CAN JOIN US ON...

 
LOGIN :

Register | Disclaimer

   EN    FR    IT 

 









Legend :    VFR   Marginal VFR   IFR   Intensive IFR   Very Intensive IFR
Visi :
Ceiling :
>= 8 km
>= 3000ft
5 to 8 km
1000 to 3000 ft
1500m to 5 km
500 to 1000 ft
800 to 1500m
200 to 500 ft
< 800m
< 200 ft
Symbols :   Thunderstorms  Fog  Heavy snow  Heavy precipitations  Wind > 20 kt






- Airport Elevation : 2284 ft
- IATA code : JST


KJST - John Murtha Johnstown Cambria County

CURRENT METAR :
  • 231654Z AUTO 30004KT 10SM SCT050 17/04 A3026 RMK AO2 SLP247 T01720044

EXPIRED METARs :
  • 231554Z AUTO 30008KT 10SM SCT049 17/05 A3026 RMK AO2 SLP244 T01720050
  • 231454Z AUTO 26007KT 10SM CLR 16/04 A3025 RMK AO2 SLP243 T01610044 51016

TAF KJST
Valid from the 23 at 16:00 until the 24 at 12:00 UTC


231540Z 2316/2412 26006KT P6SM FEW035
FM231630 28007KT P6SM SCT035
FM240100 16006KT P6SM SKC
KZOB FIR / North America



MET'MAP, your aeronautical weather chart ! - Copyright ORBIFLY December 2007 - Disclaimer

ORBIFLY MET'MAP TEAM :

Programming & Development : Alexandra Zaïnal
Concept & original design : Baudouin d'Aumeries
Assistance for programming : Marc-Olivier Méhu
Technical & hardware support : Manuel Goepfert

Contact : metmap@orbifly.com




SOURCES & CREDITS :

   NOAA       Earth
Advisory